createdAt,value
2018-12-10T00:00:21.762Z,997.73
2018-12-10T00:01:21.618Z,997.78
2018-12-10T00:02:21.586Z,997.72
2018-12-10T00:03:21.575Z,997.76
2018-12-10T00:04:21.541Z,997.75
2018-12-10T00:05:21.546Z,997.75
2018-12-10T00:06:21.534Z,997.81
2018-12-10T00:07:21.491Z,997.77
2018-12-10T00:08:21.511Z,997.85
2018-12-10T00:09:21.459Z,997.88
2018-12-10T00:10:21.470Z,997.82
2018-12-10T00:11:21.421Z,997.82
2018-12-10T00:12:21.395Z,997.83
2018-12-10T00:13:21.383Z,997.79
2018-12-10T00:14:21.352Z,997.75
2018-12-10T00:15:21.462Z,997.80
2018-12-10T00:16:21.324Z,997.85
2018-12-10T00:17:21.306Z,997.93
2018-12-10T00:18:21.278Z,997.85
2018-12-10T00:19:21.257Z,997.93
2018-12-10T00:20:21.252Z,997.86
2018-12-10T00:21:21.253Z,997.92
2018-12-10T00:22:21.205Z,997.94
2018-12-10T00:23:21.193Z,997.98
2018-12-10T00:24:21.154Z,997.94
2018-12-10T00:25:21.138Z,997.91
2018-12-10T00:26:21.125Z,997.93
2018-12-10T00:27:21.117Z,997.97
2018-12-10T00:28:21.090Z,997.98
2018-12-10T00:29:21.069Z,998.01
2018-12-10T00:30:21.051Z,997.96
2018-12-10T00:31:21.060Z,998.08
2018-12-10T00:32:21.007Z,997.98
2018-12-10T00:33:21.052Z,997.99
2018-12-10T00:34:20.973Z,997.96
2018-12-10T00:35:20.950Z,998.03
2018-12-10T00:36:20.929Z,998.04
2018-12-10T00:37:20.914Z,998.15
2018-12-10T00:38:20.882Z,998.14
2018-12-10T00:39:20.879Z,998.17
2018-12-10T00:40:20.844Z,998.14
2018-12-10T00:41:20.887Z,998.14
2018-12-10T00:42:20.808Z,998.16
2018-12-10T00:43:20.796Z,998.12
2018-12-10T00:44:20.785Z,998.16
2018-12-10T00:45:20.748Z,998.13
2018-12-10T00:46:22.558Z,998.20
2018-12-10T00:47:20.709Z,998.27
2018-12-10T00:48:20.704Z,998.22
2018-12-10T00:49:20.703Z,998.26
2018-12-10T00:50:20.654Z,998.30
2018-12-10T00:51:20.642Z,998.15
2018-12-10T00:52:20.624Z,998.25
2018-12-10T00:53:20.588Z,998.27
2018-12-10T00:54:20.587Z,998.22
2018-12-10T00:55:20.554Z,998.35
2018-12-10T00:56:20.542Z,998.31
2018-12-10T00:57:20.528Z,998.19
2018-12-10T00:58:20.494Z,998.19
2018-12-10T00:59:20.478Z,998.31
2018-12-10T01:00:20.452Z,998.35
2018-12-10T01:01:20.441Z,998.26
2018-12-10T01:02:20.424Z,998.25
2018-12-10T01:03:20.395Z,998.39
2018-12-10T01:04:20.422Z,998.37
2018-12-10T01:05:20.351Z,998.37
2018-12-10T01:06:20.401Z,998.31
2018-12-10T01:07:20.320Z,998.41
2018-12-10T01:08:20.298Z,998.35
2018-12-10T01:09:20.277Z,998.29
2018-12-10T01:10:20.264Z,998.30
2018-12-10T01:11:20.250Z,998.33
2018-12-10T01:12:20.228Z,998.32
2018-12-10T01:13:20.237Z,998.34
2018-12-10T01:14:20.180Z,998.40
2018-12-10T01:15:20.157Z,998.46
2018-12-10T01:16:20.140Z,998.47
2018-12-10T01:17:20.270Z,998.48
2018-12-10T01:18:20.108Z,998.46
2018-12-10T01:19:20.093Z,998.51
2018-12-10T01:20:20.060Z,998.60
2018-12-10T01:21:20.039Z,998.49
2018-12-10T01:22:20.020Z,998.57
2018-12-10T01:23:20.013Z,998.58
2018-12-10T01:24:19.994Z,998.63
2018-12-10T01:25:20.030Z,998.59
2018-12-10T01:26:19.952Z,998.61
2018-12-10T01:27:19.923Z,998.58
2018-12-10T01:28:19.902Z,998.58
2018-12-10T01:29:19.889Z,998.64
2018-12-10T01:30:19.872Z,998.67
2018-12-10T01:31:19.851Z,998.67
2018-12-10T01:32:19.825Z,998.66
2018-12-10T01:33:19.824Z,998.63
2018-12-10T01:34:19.832Z,998.71
2018-12-10T01:35:19.845Z,998.74
2018-12-10T01:36:19.755Z,998.77
2018-12-10T01:37:19.727Z,998.76
2018-12-10T01:38:19.723Z,998.72
2018-12-10T01:39:19.698Z,998.81
2018-12-10T01:40:19.666Z,998.82
2018-12-10T01:41:19.650Z,998.80
2018-12-10T01:42:19.629Z,998.71
2018-12-10T01:43:19.615Z,998.83
2018-12-10T01:44:19.601Z,998.86
2018-12-10T01:45:19.569Z,998.90
2018-12-10T01:46:19.561Z,998.88
2018-12-10T01:47:19.528Z,998.90
2018-12-10T01:48:19.528Z,998.88
2018-12-10T01:49:19.497Z,998.89
2018-12-10T01:50:19.476Z,998.98
2018-12-10T01:51:19.595Z,998.90
2018-12-10T01:52:19.435Z,998.89
2018-12-10T01:53:19.408Z,998.98
2018-12-10T01:54:19.392Z,998.87
2018-12-10T01:55:19.384Z,999.01
2018-12-10T01:56:19.358Z,999.03
2018-12-10T01:57:19.367Z,999.02
2018-12-10T01:58:19.314Z,999.02
2018-12-10T01:59:19.334Z,999.09
2018-12-10T02:00:19.275Z,999.01
2018-12-10T02:01:19.263Z,999.12
2018-12-10T02:02:19.240Z,999.12
2018-12-10T02:03:19.262Z,999.10
2018-12-10T02:04:19.212Z,999.18
2018-12-10T02:05:19.184Z,999.17
2018-12-10T02:06:19.160Z,999.22
2018-12-10T02:07:19.154Z,999.20
2018-12-10T02:08:19.119Z,999.29
2018-12-10T02:09:19.106Z,999.17
2018-12-10T02:10:19.076Z,999.29
2018-12-10T02:11:19.064Z,999.32
2018-12-10T02:12:19.194Z,999.30
2018-12-10T02:13:19.027Z,999.34
2018-12-10T02:14:18.994Z,999.29
2018-12-10T02:15:18.981Z,999.37
2018-12-10T02:16:18.954Z,999.28
2018-12-10T02:17:18.947Z,999.45
2018-12-10T02:18:18.923Z,999.37
2018-12-10T02:19:18.900Z,999.38
2018-12-10T02:20:18.890Z,999.40
2018-12-10T02:21:18.867Z,999.38
2018-12-10T02:22:18.880Z,999.51
2018-12-10T02:23:18.823Z,999.46
2018-12-10T02:24:18.816Z,999.61
2018-12-10T02:25:18.813Z,999.51
2018-12-10T02:26:18.768Z,999.55
2018-12-10T02:27:18.887Z,999.58
2018-12-10T02:28:18.717Z,999.41
2018-12-10T02:29:18.715Z,999.49
2018-12-10T02:30:18.680Z,999.53
2018-12-10T02:31:18.674Z,999.46
2018-12-10T02:32:18.746Z,999.54
2018-12-10T02:33:18.629Z,999.56
2018-12-10T02:34:18.614Z,999.52
2018-12-10T02:35:18.589Z,999.51
2018-12-10T02:36:18.575Z,999.41
2018-12-10T02:37:18.540Z,999.44
2018-12-10T02:38:18.666Z,999.45
2018-12-10T02:39:18.516Z,999.49
2018-12-10T02:40:18.493Z,999.47
2018-12-10T02:41:18.475Z,999.46
2018-12-10T02:42:18.443Z,999.47
2018-12-10T02:43:18.422Z,999.47
2018-12-10T02:44:18.443Z,999.44
2018-12-10T02:45:18.384Z,999.44
2018-12-10T02:46:18.378Z,999.46
2018-12-10T02:47:18.344Z,999.45
2018-12-10T02:48:18.324Z,999.49
2018-12-10T02:49:18.343Z,999.43
2018-12-10T02:50:18.285Z,999.49
2018-12-10T02:51:18.294Z,999.51
2018-12-10T02:52:18.254Z,999.50
2018-12-10T02:53:18.229Z,999.48
2018-12-10T02:54:18.241Z,999.49
2018-12-10T02:55:18.189Z,999.51
2018-12-10T02:56:18.203Z,999.53
2018-12-10T02:57:18.142Z,999.61
2018-12-10T02:58:18.135Z,999.66
2018-12-10T02:59:18.147Z,999.61
2018-12-10T03:00:18.098Z,999.66
2018-12-10T03:01:18.076Z,999.67
2018-12-10T03:02:18.044Z,999.77
2018-12-10T03:03:18.031Z,999.76
2018-12-10T03:04:18.142Z,999.83
2018-12-10T03:05:17.986Z,999.79
2018-12-10T03:06:17.967Z,999.81
2018-12-10T03:07:17.950Z,999.82
2018-12-10T03:08:17.932Z,999.79
2018-12-10T03:09:17.918Z,999.80
2018-12-10T03:10:18.035Z,999.73
2018-12-10T03:11:17.881Z,999.76
2018-12-10T03:12:17.854Z,999.77
2018-12-10T03:13:17.832Z,999.73
2018-12-10T03:14:17.828Z,999.80
2018-12-10T03:15:17.786Z,999.82
2018-12-10T03:16:17.803Z,999.78
2018-12-10T03:17:17.783Z,999.83
2018-12-10T03:18:17.742Z,999.76
2018-12-10T03:19:17.722Z,999.78
2018-12-10T03:20:17.708Z,999.75
2018-12-10T03:21:17.683Z,999.87
2018-12-10T03:22:17.700Z,999.89
2018-12-10T03:23:17.633Z,999.97
2018-12-10T03:24:17.615Z,999.92
2018-12-10T03:25:17.606Z,999.83
2018-12-10T03:26:17.605Z,999.97
2018-12-10T03:27:17.554Z,1000.08
2018-12-10T03:28:17.540Z,999.87
2018-12-10T03:29:17.518Z,1000.14
2018-12-10T03:30:17.502Z,1000.08
2018-12-10T03:31:17.515Z,1000.02
2018-12-10T03:32:17.466Z,999.99
2018-12-10T03:33:17.440Z,1000.03
2018-12-10T03:34:17.459Z,999.96
2018-12-10T03:35:17.403Z,1000.00
2018-12-10T03:36:17.385Z,999.97
2018-12-10T03:37:17.362Z,1000.04
2018-12-10T03:38:17.350Z,1000.06
2018-12-10T03:39:17.455Z,1000.02
2018-12-10T03:40:17.301Z,1000.03
2018-12-10T03:41:17.286Z,1000.06
2018-12-10T03:42:17.256Z,1000.08
2018-12-10T03:43:17.234Z,1000.05
2018-12-10T03:44:17.230Z,999.95
2018-12-10T03:45:17.214Z,999.99
2018-12-10T03:46:17.182Z,999.96
2018-12-10T03:47:17.174Z,999.99
2018-12-10T03:48:17.131Z,1000.03
2018-12-10T03:49:17.116Z,1000.06
2018-12-10T03:50:17.244Z,1000.10
2018-12-10T03:51:17.088Z,1000.14
2018-12-10T03:52:17.066Z,1000.05
2018-12-10T03:53:17.034Z,1000.15
2018-12-10T03:54:17.015Z,1000.23
2018-12-10T03:55:17.007Z,1000.24
2018-12-10T03:56:17.015Z,1000.19
2018-12-10T03:57:16.971Z,1000.27
2018-12-10T03:58:16.961Z,1000.24
2018-12-10T03:59:16.928Z,1000.30
2018-12-10T04:00:16.894Z,1000.26
2018-12-10T04:01:17.027Z,1000.34
2018-12-10T04:02:16.856Z,1000.35
2018-12-10T04:03:16.848Z,1000.32
2018-12-10T04:04:16.827Z,1000.36
2018-12-10T04:05:16.826Z,1000.38
2018-12-10T04:06:16.790Z,1000.28
2018-12-10T04:07:16.798Z,1000.39
2018-12-10T04:08:16.777Z,1000.39
2018-12-10T04:09:16.714Z,1000.45
2018-12-10T04:10:16.708Z,1000.46
2018-12-10T04:11:16.688Z,1000.51
2018-12-10T04:12:16.667Z,1000.48
2018-12-10T04:13:16.671Z,1000.61
2018-12-10T04:14:16.649Z,1000.58
2018-12-10T04:15:16.604Z,1000.50
2018-12-10T04:16:16.574Z,1000.56
2018-12-10T04:17:16.575Z,1000.51
2018-12-10T04:18:16.682Z,1000.61
2018-12-10T04:19:16.526Z,1000.46
2018-12-10T04:20:16.508Z,1000.61
2018-12-10T04:21:16.478Z,1000.62
2018-12-10T04:22:16.461Z,1000.66
2018-12-10T04:23:16.442Z,1000.61
2018-12-10T04:24:16.555Z,1000.62
2018-12-10T04:25:16.406Z,1000.69
2018-12-10T04:26:16.409Z,1000.66
2018-12-10T04:27:16.371Z,1000.70
2018-12-10T04:28:16.339Z,1000.67
2018-12-10T04:29:16.335Z,1000.58
2018-12-10T04:30:16.303Z,1000.59
2018-12-10T04:31:16.320Z,1000.57
2018-12-10T04:32:16.273Z,1000.65
2018-12-10T04:33:16.243Z,1000.61
2018-12-10T04:34:16.232Z,1000.59
2018-12-10T04:35:16.230Z,1000.55
2018-12-10T04:36:16.190Z,1000.53
2018-12-10T04:37:16.173Z,1000.56
2018-12-10T04:38:16.157Z,1000.53
2018-12-10T04:39:16.121Z,1000.60
2018-12-10T04:40:16.148Z,1000.65
2018-12-10T04:41:16.091Z,1000.67
2018-12-10T04:42:16.075Z,1000.71
2018-12-10T04:43:16.040Z,1000.76
2018-12-10T04:44:16.251Z,1000.72
2018-12-10T04:45:16.074Z,1000.66
2018-12-10T04:46:15.978Z,1000.70
2018-12-10T04:47:15.967Z,1000.71
2018-12-10T04:48:15.949Z,1000.62
2018-12-10T04:49:15.924Z,1000.67
2018-12-10T04:50:15.912Z,1000.65
2018-12-10T04:51:15.915Z,1000.71
2018-12-10T04:52:15.862Z,1000.71
2018-12-10T04:53:15.843Z,1000.69
2018-12-10T04:54:15.820Z,1000.70
2018-12-10T04:55:15.833Z,1000.83
2018-12-10T04:56:15.794Z,1000.87
2018-12-10T04:57:15.794Z,1000.88
2018-12-10T04:58:15.746Z,1000.93
2018-12-10T04:59:15.739Z,1000.95
2018-12-10T05:00:15.703Z,1000.90
2018-12-10T05:01:15.697Z,1000.86
2018-12-10T05:02:15.702Z,1000.87
2018-12-10T05:03:15.653Z,1000.93
2018-12-10T05:04:15.632Z,1000.90
2018-12-10T05:05:15.602Z,1000.96
2018-12-10T05:06:15.630Z,1001.00
2018-12-10T05:07:15.608Z,1001.06
2018-12-10T05:08:15.547Z,1001.05
2018-12-10T05:09:15.538Z,1001.10
2018-12-10T05:10:15.506Z,1001.07
2018-12-10T05:11:15.484Z,1001.08
2018-12-10T05:12:15.501Z,1001.03
2018-12-10T05:13:15.448Z,1000.93
2018-12-10T05:14:15.441Z,1001.02
2018-12-10T05:15:15.410Z,1001.00
2018-12-10T05:16:15.449Z,1000.98
2018-12-10T05:17:15.381Z,1001.00
2018-12-10T05:18:15.347Z,1001.07
2018-12-10T05:19:15.342Z,1001.08
2018-12-10T05:20:15.323Z,1001.06
2018-12-10T05:21:15.301Z,1001.11
2018-12-10T05:22:15.296Z,1001.08
2018-12-10T05:23:15.284Z,1001.11
2018-12-10T05:24:15.241Z,1001.16
2018-12-10T05:25:15.206Z,1001.12
2018-12-10T05:26:15.195Z,1001.18
2018-12-10T05:27:15.181Z,1001.19
2018-12-10T05:28:15.190Z,1001.15
2018-12-10T05:29:15.129Z,1001.22
2018-12-10T05:30:15.123Z,1001.23
2018-12-10T05:31:15.107Z,1001.22
2018-12-10T05:32:15.085Z,1001.25
2018-12-10T05:33:15.064Z,1001.09
2018-12-10T05:34:15.173Z,1001.22
2018-12-10T05:35:15.024Z,1001.27
2018-12-10T05:36:14.998Z,1001.27
2018-12-10T05:37:14.969Z,1001.23
2018-12-10T05:38:14.957Z,1001.28
2018-12-10T05:39:14.930Z,1001.38
2018-12-10T05:40:14.917Z,1001.40
2018-12-10T05:41:14.900Z,1001.37
2018-12-10T05:42:14.887Z,1001.36
2018-12-10T05:43:14.862Z,1001.40
2018-12-10T05:44:14.830Z,1001.38
2018-12-10T05:45:14.851Z,1001.43
2018-12-10T05:46:14.803Z,1001.35
2018-12-10T05:47:14.771Z,1001.37
2018-12-10T05:48:14.752Z,1001.43
2018-12-10T05:49:14.746Z,1001.42
2018-12-10T05:50:14.771Z,1001.42
2018-12-10T05:51:14.696Z,1001.43
2018-12-10T05:52:14.680Z,1001.38
2018-12-10T05:53:14.665Z,1001.38
2018-12-10T05:54:14.633Z,1001.34
2018-12-10T05:55:14.610Z,1001.42
2018-12-10T05:56:14.632Z,1001.39
2018-12-10T05:57:14.587Z,1001.42
2018-12-10T05:58:14.589Z,1001.43
2018-12-10T05:59:14.545Z,1001.48
2018-12-10T06:00:14.526Z,1001.52
2018-12-10T06:01:14.497Z,1001.51
2018-12-10T06:02:14.526Z,1001.48
2018-12-10T06:03:14.454Z,1001.54
2018-12-10T06:04:14.433Z,1001.49
2018-12-10T06:05:14.426Z,1001.48
2018-12-10T06:06:14.404Z,1001.44
2018-12-10T06:07:14.369Z,1001.49
2018-12-10T06:08:14.508Z,1001.43
2018-12-10T06:09:14.343Z,1001.46
2018-12-10T06:10:14.319Z,1001.54
2018-12-10T06:11:14.309Z,1001.57
2018-12-10T06:12:14.272Z,1001.54
2018-12-10T06:13:14.261Z,1001.49
2018-12-10T06:14:14.252Z,1001.50
2018-12-10T06:15:14.225Z,1001.54
2018-12-10T06:16:14.197Z,1001.57
2018-12-10T06:17:14.181Z,1001.55
2018-12-10T06:18:14.166Z,1001.59
2018-12-10T06:19:14.202Z,1001.54
2018-12-10T06:20:14.129Z,1001.61
2018-12-10T06:21:14.105Z,1001.68
2018-12-10T06:22:14.067Z,1001.60
2018-12-10T06:23:14.048Z,1001.52
2018-12-10T06:24:14.047Z,1001.64
2018-12-10T06:25:14.074Z,1001.61
2018-12-10T06:26:14.004Z,1001.68
2018-12-10T06:27:13.974Z,1001.69
2018-12-10T06:28:13.967Z,1001.77
2018-12-10T06:29:13.937Z,1001.72
2018-12-10T06:30:13.911Z,1001.75
2018-12-10T06:31:13.970Z,1001.79
2018-12-10T06:32:13.876Z,1001.74
2018-12-10T06:33:13.860Z,1001.73
2018-12-10T06:34:13.838Z,1001.79
2018-12-10T06:35:13.813Z,1001.81
2018-12-10T06:36:13.790Z,1001.71
2018-12-10T06:37:13.775Z,1001.78
2018-12-10T06:38:13.754Z,1001.81
2018-12-10T06:39:13.742Z,1001.72
2018-12-10T06:40:13.708Z,1001.78
2018-12-10T06:41:13.691Z,1001.78
2018-12-10T06:42:13.706Z,1001.84
2018-12-10T06:43:13.688Z,1001.88
2018-12-10T06:44:13.648Z,1001.87
2018-12-10T06:45:13.612Z,1001.86
2018-12-10T06:46:13.605Z,1001.87
2018-12-10T06:47:13.583Z,1001.89
2018-12-10T06:48:13.584Z,1001.93
2018-12-10T06:49:13.528Z,1001.88
2018-12-10T06:50:13.522Z,1001.95
2018-12-10T06:51:13.508Z,1002.00
2018-12-10T06:52:13.487Z,1002.01
2018-12-10T06:53:13.594Z,1001.99
2018-12-10T06:54:13.446Z,1002.02
2018-12-10T06:55:13.415Z,1002.07
2018-12-10T06:56:13.407Z,1002.05
2018-12-10T06:57:13.388Z,1002.07
2018-12-10T06:58:13.354Z,1002.07
2018-12-10T06:59:13.347Z,1002.07
2018-12-10T07:00:13.325Z,1002.03
2018-12-10T07:01:13.299Z,1002.09
2018-12-10T07:02:13.271Z,1002.05
2018-12-10T07:03:13.256Z,1002.12
2018-12-10T07:04:13.250Z,1002.04
2018-12-10T07:05:13.222Z,1002.07
2018-12-10T07:06:13.198Z,1002.05
2018-12-10T07:07:13.180Z,1002.08
2018-12-10T07:08:13.167Z,1002.08
2018-12-10T07:09:13.286Z,1002.15
2018-12-10T07:10:13.114Z,1002.13
2018-12-10T07:11:13.106Z,1002.17
2018-12-10T07:12:13.071Z,1002.25
2018-12-10T07:13:13.055Z,1002.21
2018-12-10T07:14:13.051Z,1002.25
2018-12-10T07:15:13.028Z,1002.24
2018-12-10T07:16:12.990Z,1002.37
2018-12-10T07:17:12.983Z,1002.29
2018-12-10T07:18:12.953Z,1002.21
2018-12-10T07:19:12.950Z,1002.31
2018-12-10T07:20:12.926Z,1002.34
2018-12-10T07:21:12.905Z,1002.32
2018-12-10T07:22:12.872Z,1002.31
2018-12-10T07:23:12.852Z,1002.36
2018-12-10T07:24:12.901Z,1002.39
2018-12-10T07:25:12.823Z,1002.43
2018-12-10T07:26:12.800Z,1002.39
2018-12-10T07:27:12.788Z,1002.43
2018-12-10T07:28:12.797Z,1002.44
2018-12-10T07:29:12.738Z,1002.39
2018-12-10T07:30:12.712Z,1002.47
2018-12-10T07:31:12.708Z,1002.32
2018-12-10T07:32:12.677Z,1002.42
2018-12-10T07:33:12.717Z,1002.42
2018-12-10T07:34:12.630Z,1002.47
2018-12-10T07:35:12.627Z,1002.52
2018-12-10T07:36:12.605Z,1002.46
2018-12-10T07:37:12.577Z,1002.50
2018-12-10T07:38:12.551Z,1002.51
2018-12-10T07:39:12.558Z,1002.50
2018-12-10T07:40:12.525Z,1002.50
2018-12-10T07:41:12.507Z,1002.57
2018-12-10T07:42:12.483Z,1002.50
2018-12-10T07:43:12.458Z,1002.50
2018-12-10T07:44:12.478Z,1002.55
2018-12-10T07:45:12.417Z,1002.58
2018-12-10T07:46:12.412Z,1002.55
2018-12-10T07:47:12.390Z,1002.66
2018-12-10T07:48:12.370Z,1002.65
2018-12-10T07:49:12.354Z,1002.70
2018-12-10T07:50:12.327Z,1002.68
2018-12-10T07:51:12.306Z,1002.63
2018-12-10T07:52:12.310Z,1002.72
2018-12-10T07:53:12.267Z,1002.65
2018-12-10T07:54:12.244Z,1002.63
2018-12-10T07:55:12.227Z,1002.63
2018-12-10T07:56:12.240Z,1002.65
2018-12-10T07:57:12.194Z,1002.77
2018-12-10T07:58:12.158Z,1002.66
2018-12-10T07:59:12.147Z,1002.72
2018-12-10T08:00:12.119Z,1002.69
2018-12-10T08:01:12.268Z,1002.70
2018-12-10T08:02:12.108Z,1002.71
2018-12-10T08:03:12.067Z,1002.69
2018-12-10T08:04:12.044Z,1002.68
2018-12-10T08:05:12.403Z,1002.67
2018-12-10T08:06:11.994Z,1002.64
2018-12-10T08:07:12.015Z,1002.69
2018-12-10T08:08:11.993Z,1002.73
2018-12-10T08:09:11.938Z,1002.77
2018-12-10T08:10:11.930Z,1002.69
2018-12-10T08:11:11.898Z,1002.77
2018-12-10T08:12:11.888Z,1002.78
2018-12-10T08:13:11.922Z,1002.72
2018-12-10T08:14:11.866Z,1002.76
2018-12-10T08:15:11.830Z,1002.73
2018-12-10T08:16:11.804Z,1002.74
2018-12-10T08:17:11.792Z,1002.78
2018-12-10T08:18:11.773Z,1002.75
2018-12-10T08:19:11.784Z,1002.82
2018-12-10T08:20:11.730Z,1002.76
2018-12-10T08:21:11.707Z,1002.91
2018-12-10T08:22:11.692Z,1002.87
2018-12-10T08:23:11.671Z,1002.91
2018-12-10T08:24:11.652Z,1002.86
2018-12-10T08:25:11.665Z,1002.94
2018-12-10T08:26:11.613Z,1002.97
2018-12-10T08:27:11.601Z,1002.90
2018-12-10T08:28:11.572Z,1002.90
2018-12-10T08:29:11.549Z,1002.88
2018-12-10T08:30:11.673Z,1002.88
2018-12-10T08:31:11.519Z,1002.99
2018-12-10T08:32:11.498Z,1002.96
2018-12-10T08:33:11.478Z,1002.96
2018-12-10T08:34:11.453Z,1002.99
2018-12-10T08:35:11.435Z,1002.87
2018-12-10T08:36:11.449Z,1002.96
2018-12-10T08:37:11.414Z,1002.95
2018-12-10T08:38:11.379Z,1002.97
2018-12-10T08:39:11.358Z,1002.91
2018-12-10T08:40:11.343Z,1003.04
2018-12-10T08:41:11.306Z,1002.93
2018-12-10T08:42:11.319Z,1002.91
2018-12-10T08:43:11.391Z,1002.88
2018-12-10T08:44:11.260Z,1002.96
2018-12-10T08:45:11.227Z,1002.97
2018-12-10T08:46:11.314Z,1002.91
2018-12-10T08:47:16.059Z,1002.85
2018-12-10T08:48:11.174Z,1002.89
2018-12-10T08:49:11.157Z,1002.95
2018-12-10T08:50:11.129Z,1002.87
2018-12-10T08:51:11.180Z,1002.93
2018-12-10T08:52:11.128Z,1002.96
2018-12-10T08:53:11.080Z,1002.89
2018-12-10T08:54:11.104Z,1003.02
2018-12-10T08:55:11.120Z,1002.92
2018-12-10T08:56:11.030Z,1003.00
2018-12-10T08:57:11.138Z,1003.07
2018-12-10T08:58:11.026Z,1002.98
2018-12-10T08:59:10.959Z,1003.00
2018-12-10T09:00:10.948Z,1003.06
2018-12-10T09:01:10.927Z,1003.09
2018-12-10T09:02:10.889Z,1003.19
2018-12-10T09:03:10.881Z,1003.25
2018-12-10T09:04:10.997Z,1003.12
2018-12-10T09:05:10.840Z,1003.14
2018-12-10T09:06:10.825Z,1003.09
2018-12-10T09:07:10.810Z,1003.16
2018-12-10T09:08:10.773Z,1003.07
2018-12-10T09:09:10.753Z,1003.09
2018-12-10T09:10:10.882Z,1003.11
2018-12-10T09:11:10.721Z,1003.17
2018-12-10T09:12:10.696Z,1003.20
2018-12-10T09:13:10.673Z,1003.29
2018-12-10T09:14:10.666Z,1003.24
2018-12-10T09:15:10.636Z,1003.27
2018-12-10T09:16:10.654Z,1003.22
2018-12-10T09:17:10.609Z,1003.25
2018-12-10T09:18:10.628Z,1003.20
2018-12-10T09:19:10.569Z,1003.26
2018-12-10T09:20:10.556Z,1003.30
2018-12-10T09:21:10.556Z,1003.27
2018-12-10T09:22:10.540Z,1003.33
2018-12-10T09:23:10.477Z,1003.15
2018-12-10T09:24:10.458Z,1003.31
2018-12-10T09:25:10.449Z,1003.33
2018-12-10T09:26:10.474Z,1003.18
2018-12-10T09:27:10.404Z,1003.34
2018-12-10T09:28:10.379Z,1003.36
2018-12-10T09:29:10.377Z,1003.36
2018-12-10T09:30:10.343Z,1003.34
2018-12-10T09:31:10.323Z,1003.49
2018-12-10T09:32:12.389Z,1003.39
2018-12-10T09:33:10.286Z,1003.41
2018-12-10T09:34:10.274Z,1003.38
2018-12-10T09:35:10.248Z,1003.41
2018-12-10T09:36:10.231Z,1003.44
2018-12-10T09:37:10.226Z,1003.52
2018-12-10T09:38:10.198Z,1003.48
2018-12-10T09:39:10.173Z,1003.47
2018-12-10T09:40:10.336Z,1003.47
2018-12-10T09:41:10.136Z,1003.54
2018-12-10T09:42:10.160Z,1003.56
2018-12-10T09:43:10.093Z,1003.57
2018-12-10T09:44:10.161Z,1003.54
2018-12-10T09:45:10.067Z,1003.59
2018-12-10T09:46:10.041Z,1003.57
2018-12-10T09:47:10.016Z,1003.64
2018-12-10T09:48:10.011Z,1003.60
2018-12-10T09:49:09.977Z,1003.69
2018-12-10T09:50:09.962Z,1003.63
2018-12-10T09:51:09.947Z,1003.66
2018-12-10T09:52:09.919Z,1003.62
2018-12-10T09:53:09.935Z,1003.63
2018-12-10T09:54:09.875Z,1003.64
2018-12-10T09:55:09.855Z,1003.59
2018-12-10T09:56:09.839Z,1003.55
2018-12-10T09:57:09.834Z,1003.59
2018-12-10T09:58:09.943Z,1003.54
2018-12-10T09:59:09.782Z,1003.52
2018-12-10T10:00:09.770Z,1003.69
2018-12-10T10:01:09.746Z,1003.63
2018-12-10T10:02:12.373Z,1003.72
2018-12-10T10:03:09.705Z,1003.64
2018-12-10T10:04:09.722Z,1003.60
2018-12-10T10:05:09.663Z,1003.69
2018-12-10T10:06:09.652Z,1003.71
2018-12-10T10:07:09.890Z,1003.66
2018-12-10T10:08:09.609Z,1003.61
2018-12-10T10:09:09.590Z,1003.55
2018-12-10T10:10:09.568Z,1003.45
2018-12-10T10:11:09.547Z,1003.57
2018-12-10T10:12:09.518Z,1003.46
2018-12-10T10:13:09.519Z,1003.55
2018-12-10T10:14:09.761Z,1003.65
2018-12-10T10:15:09.478Z,1003.67
2018-12-10T10:16:09.457Z,1003.69
2018-12-10T10:17:09.433Z,1003.69
2018-12-10T10:18:09.449Z,1003.67
2018-12-10T10:19:09.391Z,1003.61
2018-12-10T10:20:09.389Z,1003.53
2018-12-10T10:21:11.369Z,1003.64
2018-12-10T10:22:09.354Z,1003.58
2018-12-10T10:23:09.314Z,1003.62
2018-12-10T10:24:09.315Z,1003.57
2018-12-10T10:25:09.267Z,1003.64
2018-12-10T10:26:09.254Z,1003.65
2018-12-10T10:27:09.259Z,1003.66
2018-12-10T10:28:09.218Z,1003.71
2018-12-10T10:29:09.231Z,1003.72
2018-12-10T10:30:09.181Z,1003.64
2018-12-10T10:31:09.148Z,1003.75
2018-12-10T10:32:09.127Z,1003.60
2018-12-10T10:33:09.114Z,1003.69
2018-12-10T10:34:09.119Z,1003.68
2018-12-10T10:35:09.073Z,1003.55
2018-12-10T10:36:09.054Z,1003.65
2018-12-10T10:37:09.036Z,1003.71
2018-12-10T10:38:09.062Z,1003.69
2018-12-10T10:39:08.996Z,1003.66
2018-12-10T10:40:09.011Z,1003.54
2018-12-10T10:41:09.018Z,1003.58
2018-12-10T10:42:08.948Z,1003.57
2018-12-10T10:43:08.917Z,1003.56
2018-12-10T10:44:09.064Z,1003.56
2018-12-10T10:45:08.884Z,1003.56
2018-12-10T10:46:08.859Z,1003.61
2018-12-10T10:47:08.840Z,1003.51
2018-12-10T10:48:08.819Z,1003.56
2018-12-10T10:49:08.798Z,1003.57
2018-12-10T10:50:08.775Z,1003.61
2018-12-10T10:51:08.798Z,1003.58
2018-12-10T10:52:08.748Z,1003.60
2018-12-10T10:53:08.734Z,1003.48
2018-12-10T10:54:08.713Z,1003.49
2018-12-10T10:55:08.685Z,1003.53
2018-12-10T10:56:08.671Z,1003.24
2018-12-10T10:57:08.646Z,1003.31
2018-12-10T10:58:08.624Z,1003.33
2018-12-10T10:59:08.664Z,1003.55
2018-12-10T11:00:08.583Z,1003.54
2018-12-10T11:01:08.577Z,1003.45
2018-12-10T11:02:08.549Z,1003.43
2018-12-10T11:03:08.526Z,1003.48
2018-12-10T11:04:10.514Z,1003.47
2018-12-10T11:05:08.490Z,1003.47
2018-12-10T11:06:08.481Z,1003.29
2018-12-10T11:07:08.457Z,1003.44
2018-12-10T11:08:08.437Z,1003.40
2018-12-10T11:09:15.331Z,1003.46
2018-12-10T11:10:08.428Z,1003.48
2018-12-10T11:11:08.381Z,1003.51
2018-12-10T11:12:08.345Z,1003.54
2018-12-10T11:13:08.333Z,1003.49
2018-12-10T11:14:08.325Z,1003.63
2018-12-10T11:15:08.294Z,1003.47
2018-12-10T11:16:08.307Z,1003.46
2018-12-10T11:17:08.252Z,1003.32
2018-12-10T11:18:08.236Z,1003.45
2018-12-10T11:19:08.219Z,1003.38
2018-12-10T11:20:08.196Z,1003.32
2018-12-10T11:21:08.213Z,1003.39
2018-12-10T11:22:08.184Z,1003.49
2018-12-10T11:23:08.138Z,1003.43
2018-12-10T11:24:08.120Z,1003.42
2018-12-10T11:25:08.102Z,1003.46
2018-12-10T11:26:08.114Z,1003.47
2018-12-10T11:27:08.071Z,1003.49
2018-12-10T11:28:08.046Z,1003.17
2018-12-10T11:29:08.037Z,1003.31
2018-12-10T11:30:08.005Z,1003.46
2018-12-10T11:31:08.038Z,1003.33
2018-12-10T11:32:07.977Z,1003.39
2018-12-10T11:33:07.953Z,1003.35
2018-12-10T11:34:07.939Z,1003.30
2018-12-10T11:35:07.920Z,1003.36
2018-12-10T11:36:07.902Z,1003.29
2018-12-10T11:37:07.880Z,1003.26
2018-12-10T11:38:07.861Z,1003.35
2018-12-10T11:39:07.840Z,1003.27
2018-12-10T11:40:07.816Z,1003.29
2018-12-10T11:41:07.812Z,1003.12
2018-12-10T11:42:07.787Z,1002.96
2018-12-10T11:43:07.792Z,1003.15
2018-12-10T11:44:07.968Z,1003.21
2018-12-10T11:45:07.728Z,1003.20
2018-12-10T11:46:07.737Z,1003.23
2018-12-10T11:47:13.053Z,1003.06
2018-12-10T11:48:07.658Z,1003.27
2018-12-10T11:49:07.646Z,1003.19
2018-12-10T11:50:07.684Z,1003.16
2018-12-10T11:51:07.641Z,1003.33
2018-12-10T11:52:07.591Z,1003.30
2018-12-10T11:53:07.615Z,1003.31
2018-12-10T11:54:07.555Z,1003.24
2018-12-10T11:55:07.530Z,1003.28
2018-12-10T11:56:07.512Z,1003.28
2018-12-10T11:57:07.485Z,1003.35
2018-12-10T11:58:07.473Z,1003.36
2018-12-10T11:59:07.453Z,1003.46
2018-12-10T12:00:07.432Z,1003.44
2018-12-10T12:01:07.408Z,1003.36
2018-12-10T12:02:07.387Z,1003.34
2018-12-10T12:03:07.374Z,1003.37
2018-12-10T12:04:07.352Z,1003.41
2018-12-10T12:05:07.592Z,1003.28
2018-12-10T12:06:07.324Z,1003.34
2018-12-10T12:07:07.293Z,1003.38
2018-12-10T12:08:07.274Z,1003.42
2018-12-10T12:09:07.263Z,1003.44
2018-12-10T12:10:07.234Z,1003.45
2018-12-10T12:11:07.256Z,1003.35
2018-12-10T12:12:07.194Z,1003.44